Time;durP1;ratioP1;P1;durP2;ratioP2;P2;SDS_P1;SDS_P2;PMS_P1;PMS_P2;Temp;Humidity;BMP_temperature;BMP_pressure;BME280_temperature;BME280_humidity;BME280_pressure;Samples;Min_cycle;Max_cycle;Signal;HPM_P1;HPM_P2
2021/03/18 08:06:35;;;;;;;8.20;3.90;;;;;;;;;;10580921;28;20028;-86
2021/03/18 08:11:37;;;;;;;8.85;5.20;;;;;;;;;;10542310;28;20029;-84
2021/03/18 08:16:38;;;;;;;11.18;4.90;;;;;;;;;;10551321;28;20025;-85
2021/03/18 08:22:10;;;;;;;10.70;4.68;;;;;;;;;;10547889;28;20020;-85
2021/03/18 08:27:11;;;;;;;13.35;5.35;;;;;;;;;;10546553;28;20541;-85
2021/03/18 08:32:27;;;;;;;10.60;5.15;;;;;;;;;;10549527;28;20031;-84
2021/03/18 08:37:50;;;;;;;8.63;4.30;;;;;;;;;;10550540;28;20111;-83
2021/03/18 08:42:53;;;;;;;8.50;4.20;;;;;;;;;;10535436;28;20032;-82
2021/03/18 08:47:57;;;;;;;7.32;3.83;;;;;;;;;;10546611;28;20480;-83
2021/03/18 08:52:59;;;;;;;6.53;3.58;;;;;;;;;;10578132;28;20503;-84
2021/03/18 08:58:00;;;;;;;7.80;4.40;;;;;;;;;;10562096;28;20020;-85
2021/03/18 09:03:02;;;;;;;6.18;3.65;;;;;;;;;;10560427;28;20028;-85
2021/03/18 09:08:04;;;;;;;7.03;3.40;;;;;;;;;;10556509;28;20040;-84
2021/03/18 09:13:38;;;;;;;5.82;3.45;;;;;;;;;;10559355;28;20024;-86
2021/03/18 09:24:45;;;;;;;5.05;3.55;;;;;;;;;;10573662;28;20036;-86
2021/03/18 09:30:06;;;;;;;6.93;5.38;;;;;;;;;;10542911;28;20448;-87
2021/03/18 09:40:50;;;;;;;6.30;3.15;;;;;;;;;;10560623;28;20028;-87
2021/03/18 09:46:20;;;;;;;6.68;3.70;;;;;;;;;;10536859;28;20034;-88
2021/03/18 09:51:49;;;;;;;7.30;4.35;;;;;;;;;;10556126;28;20036;-86
2021/03/18 10:03:17;;;;;;;5.05;3.00;;;;;;;;;;10518736;28;20048;-86
2021/03/18 10:08:51;;;;;;;5.57;3.45;;;;;;;;;;10506300;28;20016;-87
2021/03/18 10:14:15;;;;;;;6.00;3.83;;;;;;;;;;10499195;28;20400;-87
2021/03/18 10:19:17;;;;;;;7.07;4.35;;;;;;;;;;10547588;28;20373;-86
2021/03/18 10:24:26;;;;;;;5.20;3.95;;;;;;;;;;10579367;28;20028;-87
2021/03/18 10:29:48;;;;;;;6.13;4.00;;;;;;;;;;10582781;28;20029;-86
2021/03/18 10:34:57;;;;;;;4.75;2.63;;;;;;;;;;10566826;28;20039;-86
2021/03/18 10:40:12;;;;;;;6.07;3.45;;;;;;;;;;10548104;28;20024;-86
2021/03/18 10:45:23;;;;;;;4.30;3.00;;;;;;;;;;10593797;23;20048;-86
2021/03/18 10:50:28;;;;;;;4.47;2.85;;;;;;;;;;10524824;28;20020;-85
2021/03/18 11:01:05;;;;;;;5.03;3.30;;;;;;;;;;10469522;28;20032;-86
2021/03/18 11:06:25;;;;;;;;;;;;;;;;;;10547069;28;20084;-85
2021/03/18 11:11:32;;;;;;;4.95;2.60;;;;;;;;;;10544261;28;19911;-86
2021/03/18 11:16:34;;;;;;;5.00;3.50;;;;;;;;;;10538815;28;20048;-85
2021/03/18 11:22:08;;;;;;;5.57;3.58;;;;;;;;;;10550604;28;20028;-87
2021/03/18 11:27:37;;;;;;;4.30;2.28;;;;;;;;;;10534572;28;20035;-86
2021/03/18 11:33:11;;;;;;;3.70;2.25;;;;;;;;;;10504612;28;20115;-86
2021/03/18 11:38:13;;;;;;;5.38;3.17;;;;;;;;;;10539275;28;20040;-87
2021/03/18 11:43:16;;;;;;;4.07;2.50;;;;;;;;;;10548053;28;20032;-88
2021/03/18 11:48:18;;;;;;;3.97;1.88;;;;;;;;;;10566818;28;20046;-86
2021/03/18 11:53:31;;;;;;;3.75;2.13;;;;;;;;;;10568854;28;20021;-88
2021/03/18 11:58:58;;;;;;;3.33;2.20;;;;;;;;;;10568750;28;20068;-87
2021/03/18 12:03:59;;;;;;;3.67;1.80;;;;;;;;;;10541454;28;20099;-86
2021/03/18 12:09:06;;;;;;;2.58;1.65;;;;;;;;;;10542177;28;20028;-88
2021/03/18 12:14:08;;;;;;;2.40;1.55;;;;;;;;;;10569863;28;20020;-86
2021/03/18 12:19:14;;;;;;;3.22;1.60;;;;;;;;;;10552597;28;20066;-85
2021/03/18 12:24:20;;;;;;;2.00;1.13;;;;;;;;;;10556564;28;20036;-86
2021/03/18 12:29:22;;;;;;;4.90;2.20;;;;;;;;;;10542918;28;20051;-86
2021/03/18 12:34:23;;;;;;;4.75;2.15;;;;;;;;;;10542913;28;20032;-86
2021/03/18 12:39:59;;;;;;;3.25;2.25;;;;;;;;;;10555574;28;20023;-84
2021/03/18 12:45:20;;;;;;;3.20;1.95;;;;;;;;;;10571588;28;20044;-83
2021/03/18 12:50:30;;;;;;;2.92;1.90;;;;;;;;;;10568604;28;20178;-86
2021/03/18 12:55:58;;;;;;;4.43;2.60;;;;;;;;;;10539926;28;20480;-86
2021/03/18 13:01:00;;;;;;;3.03;2.10;;;;;;;;;;10535866;28;20540;-87
2021/03/18 13:06:01;;;;;;;4.15;3.30;;;;;;;;;;10541821;28;20025;-83
2021/03/18 13:11:02;;;;;;;3.47;1.70;;;;;;;;;;10542612;28;20053;-83
2021/03/18 13:16:03;;;;;;;3.25;2.10;;;;;;;;;;10544292;28;20028;-82
2021/03/18 13:21:05;;;;;;;4.57;2.60;;;;;;;;;;10559616;28;20472;-83
2021/03/18 13:26:06;;;;;;;5.97;2.70;;;;;;;;;;10542042;28;20020;-81
2021/03/18 13:31:07;;;;;;;6.18;2.72;;;;;;;;;;10561116;28;20028;-84
2021/03/18 13:36:08;;;;;;;3.67;2.53;;;;;;;;;;10544393;28;20184;-83
2021/03/18 13:41:08;;;;;;;6.03;2.90;;;;;;;;;;10542296;28;20024;-83
2021/03/18 13:46:11;;;;;;;3.38;2.10;;;;;;;;;;10539514;28;20044;-85
2021/03/18 13:51:14;;;;;;;3.83;2.53;;;;;;;;;;10539559;28;20028;-85
2021/03/18 14:19:19;;;;;;;3.75;1.80;;;;;;;;;;10578025;28;20024;-84
2021/03/18 14:24:47;;;;;;;3.13;1.70;;;;;;;;;;10557358;28;20043;-85
2021/03/18 14:29:49;;;;;;;2.45;1.77;;;;;;;;;;10539413;28;20036;-84
2021/03/18 14:34:57;;;;;;;2.08;1.65;;;;;;;;;;10555145;28;20048;-83
2021/03/18 14:57:18;;;;;;;5.63;4.38;;;;;;;;;;10576361;28;20064;-84
2021/03/18 15:02:51;;;;;;;3.58;2.55;;;;;;;;;;10572901;28;20028;-85
2021/03/18 15:08:31;;;;;;;4.93;4.15;;;;;;;;;;10450919;28;20044;-86
2021/03/18 15:13:37;;;;;;;4.38;2.42;;;;;;;;;;10455033;28;20045;-84
2021/03/18 15:18:54;;;;;;;4.38;2.33;;;;;;;;;;10552969;28;20028;-85
2021/03/18 15:24:31;;;;;;;4.78;3.45;;;;;;;;;;10561503;28;20024;-85
2021/03/18 15:29:53;;;;;;;4.90;3.50;;;;;;;;;;10454251;28;20040;-85
2021/03/18 15:34:55;;;;;;;5.68;4.13;;;;;;;;;;10451605;28;20524;-84
2021/03/18 15:39:56;;;;;;;4.45;4.00;;;;;;;;;;10541151;28;20131;-85
2021/03/18 15:44:57;;;;;;;6.30;3.63;;;;;;;;;;10554394;28;20020;-85
2021/03/18 15:49:58;;;;;;;5.63;4.00;;;;;;;;;;10548983;28;20028;-85
2021/03/18 15:54:59;;;;;;;4.88;3.58;;;;;;;;;;10550894;28;20020;-85
2021/03/18 16:00:01;;;;;;;4.30;3.70;;;;;;;;;;10549816;28;20028;-82
2021/03/18 16:05:02;;;;;;;4.53;3.38;;;;;;;;;;10550051;28;20028;-84
2021/03/18 16:10:05;;;;;;;5.40;3.47;;;;;;;;;;10545774;28;20475;-85
2021/03/18 16:15:06;;;;;;;4.70;3.38;;;;;;;;;;10549539;28;20024;-84
2021/03/18 16:20:09;;;;;;;4.55;3.58;;;;;;;;;;10551575;28;20030;-84
2021/03/18 16:25:11;;;;;;;3.70;2.67;;;;;;;;;;10550633;28;20048;-86
2021/03/18 16:30:14;;;;;;;4.75;3.38;;;;;;;;;;10548809;28;20028;-86
2021/03/18 16:35:15;;;;;;;4.50;2.47;;;;;;;;;;10550992;28;20020;-85
2021/03/18 16:40:17;;;;;;;3.90;2.20;;;;;;;;;;10546523;28;20024;-85
